createdAt,value
2023-04-15T00:01:08.159Z,4.07
2023-04-15T00:03:36.419Z,3.40
2023-04-15T00:06:03.848Z,3.08
2023-04-15T00:08:31.163Z,3.42
2023-04-15T00:11:02.882Z,3.22
2023-04-15T00:13:30.350Z,3.62
2023-04-15T00:15:57.527Z,3.17
2023-04-15T00:18:25.149Z,3.35
2023-04-15T00:20:52.673Z,3.30
2023-04-15T00:23:19.824Z,3.62
2023-04-15T00:25:47.575Z,3.50
2023-04-15T00:28:14.699Z,4.45
2023-04-15T00:30:43.184Z,4.28
2023-04-15T00:33:10.710Z,4.32
2023-04-15T00:35:37.975Z,4.25
2023-04-15T00:38:06.100Z,4.55
2023-04-15T00:40:33.691Z,5.28
2023-04-15T00:43:01.144Z,3.70
2023-04-15T00:45:28.724Z,4.07
2023-04-15T00:47:56.873Z,4.25
2023-04-15T00:50:24.178Z,3.75
2023-04-15T00:52:51.969Z,4.03
2023-04-15T00:55:19.652Z,5.12
2023-04-15T00:57:46.991Z,6.97
2023-04-15T01:00:14.576Z,6.65
2023-04-15T01:02:42.326Z,5.43
2023-04-15T01:05:09.823Z,4.57
2023-04-15T01:07:37.093Z,5.10
2023-04-15T01:10:05.165Z,5.40
2023-04-15T01:12:33.143Z,4.53
2023-04-15T01:15:01.100Z,4.82
2023-04-15T01:17:28.630Z,4.18
2023-04-15T01:19:57.943Z,4.70
2023-04-15T01:22:26.786Z,5.72
2023-04-15T01:25:04.753Z,5.37
2023-04-15T01:27:32.847Z,4.97
2023-04-15T01:30:00.356Z,4.47
2023-04-15T01:32:28.096Z,4.07
2023-04-15T01:35:13.766Z,4.85
2023-04-15T01:37:48.395Z,5.93
2023-04-15T01:40:17.416Z,5.68
2023-04-15T01:42:46.636Z,5.32
2023-04-15T01:45:17.507Z,6.95
2023-04-15T01:47:46.207Z,6.45
2023-04-15T01:50:15.304Z,6.43
2023-04-15T01:52:43.676Z,6.95
2023-04-15T01:55:12.683Z,6.53
2023-04-15T01:57:41.225Z,6.62
2023-04-15T02:00:10.053Z,6.57
2023-04-15T02:02:41.730Z,5.87
2023-04-15T02:05:10.985Z,6.03
2023-04-15T02:07:39.446Z,6.12
2023-04-15T02:10:08.997Z,5.87
2023-04-15T02:12:37.757Z,6.72
2023-04-15T02:15:07.179Z,6.40
2023-04-15T02:17:37.416Z,5.47
2023-04-15T02:20:06.550Z,5.50
2023-04-15T02:22:35.218Z,4.70
2023-04-15T02:25:04.333Z,4.62
2023-04-15T02:27:33.719Z,4.72
2023-04-15T02:30:02.423Z,4.97
2023-04-15T02:32:31.265Z,4.65
2023-04-15T02:35:03.961Z,4.70
2023-04-15T02:37:32.566Z,4.62
2023-04-15T02:40:01.700Z,5.40
2023-04-15T02:42:31.907Z,5.32
2023-04-15T02:45:01.147Z,5.65
2023-04-15T02:47:30.366Z,5.65
2023-04-15T02:50:00.492Z,6.10
2023-04-15T02:52:31.174Z,6.10
2023-04-15T02:55:02.486Z,5.37
2023-04-15T02:57:31.221Z,4.65
2023-04-15T03:00:00.010Z,5.03
2023-04-15T03:02:34.336Z,5.03
2023-04-15T03:05:04.157Z,4.47
2023-04-15T03:07:32.599Z,5.05
2023-04-15T03:10:01.203Z,4.82
2023-04-15T03:12:30.415Z,4.60
2023-04-15T03:15:00.422Z,5.32
2023-04-15T03:17:29.691Z,4.45
2023-04-15T03:19:58.717Z,5.65
2023-04-15T03:22:27.210Z,5.78
2023-04-15T03:24:56.177Z,4.85
2023-04-15T03:27:25.524Z,4.37
2023-04-15T03:29:56.869Z,4.65
2023-04-15T03:32:27.176Z,4.82
2023-04-15T03:34:55.759Z,4.22
2023-04-15T03:37:24.165Z,4.00
2023-04-15T03:39:52.884Z,4.15
2023-04-15T03:42:21.289Z,4.45
2023-04-15T03:44:49.749Z,4.37
2023-04-15T03:47:18.525Z,3.72
2023-04-15T03:49:46.934Z,4.47
2023-04-15T03:52:15.468Z,3.75
2023-04-15T03:54:44.221Z,6.68
2023-04-15T03:57:12.746Z,16.23
2023-04-15T03:59:41.204Z,11.77
2023-04-15T04:02:09.979Z,7.78
2023-04-15T04:04:38.870Z,5.70
2023-04-15T04:07:07.323Z,5.95
2023-04-15T04:09:36.312Z,6.43
2023-04-15T04:12:05.067Z,5.12
2023-04-15T04:14:33.465Z,4.37
2023-04-15T04:17:02.022Z,5.50
2023-04-15T04:19:31.007Z,4.72
2023-04-15T04:21:59.417Z,4.80
2023-04-15T04:24:27.883Z,4.55
2023-04-15T04:26:57.303Z,5.05
2023-04-15T04:29:25.829Z,4.80
2023-04-15T04:31:54.234Z,4.07
2023-04-15T04:34:22.976Z,4.37
2023-04-15T04:36:51.603Z,4.30
2023-04-15T04:39:20.048Z,4.43
2023-04-15T04:41:48.871Z,4.37
2023-04-15T04:44:17.455Z,5.32
2023-04-15T04:46:45.905Z,4.30
2023-04-15T04:49:14.622Z,3.95
2023-04-15T04:51:43.197Z,3.78
2023-04-15T04:54:11.856Z,3.78
2023-04-15T04:56:41.045Z,13.55
2023-04-15T04:59:09.471Z,6.15
2023-04-15T05:01:38.027Z,4.00
2023-04-15T05:04:07.913Z,3.75
2023-04-15T05:06:36.845Z,3.80
2023-04-15T05:09:05.299Z,3.72
2023-04-15T05:11:33.990Z,3.67
2023-04-15T05:14:02.482Z,4.05
2023-04-15T05:16:30.922Z,3.55
2023-04-15T05:18:59.826Z,3.60
2023-04-15T05:21:28.333Z,3.90
2023-04-15T05:23:56.705Z,5.00
2023-04-15T05:26:25.711Z,3.87
2023-04-15T05:28:54.254Z,4.35
2023-04-15T05:31:22.885Z,4.35
2023-04-15T05:33:51.666Z,4.32
2023-04-15T05:36:20.075Z,3.97
2023-04-15T05:38:48.468Z,3.87
2023-04-15T05:41:19.705Z,3.92
2023-04-15T05:43:48.247Z,4.07
2023-04-15T05:46:17.015Z,3.65
2023-04-15T05:48:45.559Z,3.30
2023-04-15T05:51:14.025Z,3.58
2023-04-15T05:53:42.690Z,3.40
2023-04-15T05:56:11.032Z,3.90
2023-04-15T05:58:39.372Z,4.87
2023-04-15T06:01:07.978Z,3.40
2023-04-15T06:03:36.672Z,4.53
2023-04-15T06:06:05.130Z,3.80
2023-04-15T06:08:33.461Z,4.75
2023-04-15T06:11:02.126Z,3.83
2023-04-15T06:13:30.454Z,2.70
2023-04-15T06:15:58.999Z,3.65
2023-04-15T06:18:27.635Z,3.40
2023-04-15T06:20:56.053Z,3.65
2023-04-15T06:23:25.743Z,4.47
2023-04-15T06:25:55.056Z,3.12
2023-04-15T06:28:23.378Z,3.92
2023-04-15T06:30:51.687Z,3.83
2023-04-15T06:33:20.950Z,3.40
2023-04-15T06:35:49.746Z,2.70
2023-04-15T06:38:18.121Z,3.40
2023-04-15T06:40:46.718Z,3.50
2023-04-15T06:43:15.429Z,3.65
2023-04-15T06:45:43.838Z,3.22
2023-04-15T06:48:12.782Z,3.28
2023-04-15T06:50:41.374Z,3.15
2023-04-15T06:53:09.760Z,3.00
2023-04-15T06:55:38.452Z,3.37
2023-04-15T06:58:06.992Z,3.22
2023-04-15T07:00:35.648Z,2.67
2023-04-15T07:03:04.380Z,2.50
2023-04-15T07:05:33.517Z,2.12
2023-04-15T07:08:01.993Z,1.50
2023-04-15T07:10:30.653Z,2.30
2023-04-15T07:12:58.993Z,2.78
2023-04-15T07:15:27.473Z,2.17
2023-04-15T07:17:56.408Z,1.37
2023-04-15T07:20:24.968Z,1.45
2023-04-15T07:22:53.883Z,1.40
2023-04-15T07:25:22.849Z,2.37
2023-04-15T07:27:53.064Z,2.20
2023-04-15T07:30:21.491Z,2.58
2023-04-15T07:32:50.214Z,2.60
2023-04-15T07:35:21.133Z,2.95
2023-04-15T07:37:49.800Z,3.08
2023-04-15T07:40:18.189Z,3.30
2023-04-15T07:42:47.268Z,3.83
2023-04-15T07:45:16.277Z,3.20
2023-04-15T07:47:44.660Z,3.50
2023-04-15T07:50:13.040Z,3.55
2023-04-15T07:52:41.986Z,3.28
2023-04-15T07:55:10.796Z,3.53
2023-04-15T07:57:39.109Z,4.85
2023-04-15T08:00:08.396Z,4.55
2023-04-15T08:02:41.592Z,4.72
2023-04-15T08:05:10.860Z,5.05
2023-04-15T08:07:39.770Z,2.30
2023-04-15T08:10:08.736Z,5.53
2023-04-15T08:12:37.454Z,2.85
2023-04-15T08:15:08.156Z,2.08
2023-04-15T08:17:36.882Z,2.37
2023-04-15T08:20:05.957Z,2.37
2023-04-15T08:22:34.498Z,2.03
2023-04-15T08:25:03.905Z,1.70
2023-04-15T08:27:31.231Z,2.00
2023-04-15T08:29:59.647Z,2.12
2023-04-15T08:32:28.492Z,2.25
2023-04-15T08:34:56.924Z,1.80
2023-04-15T08:37:28.423Z,1.42
2023-04-15T08:39:57.070Z,2.00
2023-04-15T08:42:36.354Z,1.85
2023-04-15T08:45:05.849Z,2.00
2023-04-15T08:47:35.152Z,2.50
2023-04-15T08:50:04.428Z,2.50
2023-04-15T08:52:33.366Z,2.97
2023-04-15T08:55:03.405Z,3.58
2023-04-15T08:57:32.187Z,2.70
2023-04-15T09:00:05.363Z,3.47
2023-04-15T09:02:34.537Z,2.83
2023-04-15T09:05:06.506Z,2.20
2023-04-15T09:07:36.478Z,1.55
2023-04-15T09:10:05.577Z,1.50
2023-04-15T09:12:36.186Z,1.80
2023-04-15T09:15:05.420Z,1.67
2023-04-15T09:17:34.608Z,0.85
2023-04-15T09:20:13.678Z,1.58
2023-04-15T09:22:43.770Z,1.15
2023-04-15T09:25:15.108Z,0.90
2023-04-15T09:27:50.975Z,0.88
2023-04-15T09:30:19.363Z,0.40
2023-04-15T09:32:51.275Z,0.50
2023-04-15T09:35:26.495Z,0.50
2023-04-15T09:38:07.289Z,0.90
2023-04-15T09:40:36.507Z,1.15
2023-04-15T09:43:06.522Z,1.12
2023-04-15T09:45:36.459Z,1.15
2023-04-15T09:48:28.821Z,0.80
2023-04-15T09:51:01.369Z,0.50
2023-04-15T09:53:31.825Z,0.45
2023-04-15T09:56:02.369Z,0.30
2023-04-15T09:58:35.173Z,0.30
2023-04-15T10:01:05.134Z,0.50
2023-04-15T10:03:36.842Z,0.50
2023-04-15T10:06:08.382Z,0.60
2023-04-15T10:08:37.138Z,0.50
2023-04-15T10:11:06.435Z,0.45
2023-04-15T10:13:37.156Z,0.57
2023-04-15T10:16:10.852Z,0.47
2023-04-15T10:18:44.588Z,0.90
2023-04-15T10:21:16.447Z,0.90
2023-04-15T10:23:48.174Z,0.62
2023-04-15T10:26:17.744Z,0.62
2023-04-15T10:28:49.587Z,0.70
2023-04-15T10:31:18.608Z,0.70
2023-04-15T10:33:48.668Z,0.70
2023-04-15T10:36:19.109Z,1.50
2023-04-15T10:38:47.992Z,0.88
2023-04-15T10:41:26.831Z,0.70
2023-04-15T10:43:59.442Z,0.88
2023-04-15T10:46:41.184Z,1.25
2023-04-15T10:49:17.965Z,0.60
2023-04-15T10:51:51.162Z,0.60
2023-04-15T10:54:26.008Z,0.80
2023-04-15T10:57:01.507Z,0.73
2023-04-15T10:59:30.848Z,0.90
2023-04-15T11:02:08.719Z,1.77
2023-04-15T11:05:01.055Z,2.08
2023-04-15T11:07:35.706Z,1.50
2023-04-15T11:10:30.938Z,2.20
2023-04-15T11:15:42.523Z,1.73
2023-04-15T11:18:12.687Z,1.73
2023-04-15T11:21:03.451Z,2.17
2023-04-15T11:23:34.573Z,1.87
2023-04-15T11:26:12.425Z,1.23
2023-04-15T11:28:43.058Z,1.35
2023-04-15T11:31:14.110Z,1.42
2023-04-15T11:33:59.395Z,1.15
2023-04-15T11:36:30.171Z,0.80
2023-04-15T11:38:59.897Z,1.50
2023-04-15T11:41:28.626Z,1.00
2023-04-15T11:43:57.044Z,1.83
2023-04-15T11:46:32.030Z,0.88
2023-04-15T11:49:01.659Z,1.00
2023-04-15T11:51:33.759Z,0.80
2023-04-15T11:54:01.488Z,0.80
2023-04-15T11:56:28.874Z,1.15
2023-04-15T11:58:59.940Z,1.02
2023-04-15T12:01:44.004Z,1.35
2023-04-15T12:04:13.416Z,1.67
2023-04-15T12:06:41.356Z,1.10
2023-04-15T12:09:18.027Z,2.72
2023-04-15T12:11:55.234Z,1.62
2023-04-15T12:14:25.113Z,2.28
2023-04-15T12:16:55.213Z,1.60
2023-04-15T12:19:30.656Z,1.48
2023-04-15T12:22:03.311Z,1.50
2023-04-15T12:24:34.476Z,0.80
2023-04-15T12:27:06.903Z,1.42
2023-04-15T12:29:36.020Z,1.45
2023-04-15T12:32:13.082Z,1.30
2023-04-15T12:34:49.457Z,1.30
2023-04-15T12:37:16.975Z,1.67
2023-04-15T12:39:46.049Z,2.05
2023-04-15T12:42:13.174Z,4.28
2023-04-15T12:44:40.621Z,1.77
2023-04-15T12:47:09.321Z,0.95
2023-04-15T12:49:36.553Z,1.10
2023-04-15T12:52:04.740Z,1.20
2023-04-15T12:54:32.344Z,1.02
2023-04-15T12:57:00.028Z,1.02
2023-04-15T12:59:27.508Z,1.20
2023-04-15T13:01:54.931Z,1.62
2023-04-15T13:04:22.496Z,2.03
2023-04-15T13:06:50.162Z,1.55
2023-04-15T13:09:17.460Z,3.00
2023-04-15T13:11:44.693Z,2.25
2023-04-15T13:14:13.102Z,2.20
2023-04-15T13:16:40.876Z,0.90
2023-04-15T13:19:08.372Z,1.58
2023-04-15T13:21:36.362Z,2.40
2023-04-15T13:24:04.940Z,1.80
2023-04-15T13:26:32.886Z,2.05
2023-04-15T13:29:01.311Z,1.67
2023-04-15T13:31:28.755Z,1.62
2023-04-15T13:33:57.069Z,0.88
2023-04-15T13:36:24.598Z,0.80
2023-04-15T13:38:52.061Z,0.73
2023-04-15T13:41:20.101Z,0.80
2023-04-15T13:43:47.593Z,0.80
2023-04-15T13:46:14.960Z,0.85
2023-04-15T13:48:42.375Z,0.60
2023-04-15T13:51:09.921Z,0.77
2023-04-15T13:53:38.972Z,0.90
2023-04-15T13:56:08.102Z,1.10
2023-04-15T13:58:36.704Z,1.23
2023-04-15T14:01:05.780Z,1.90
2023-04-15T14:03:36.082Z,1.48
2023-04-15T14:06:03.771Z,2.08
2023-04-15T14:08:31.691Z,2.30
2023-04-15T14:10:59.104Z,1.05
2023-04-15T14:13:26.216Z,1.48
2023-04-15T14:15:53.364Z,1.52
2023-04-15T14:18:23.538Z,1.48
2023-04-15T14:20:50.654Z,1.75
2023-04-15T14:23:17.828Z,1.50
2023-04-15T14:25:47.908Z,2.58
2023-04-15T14:28:15.782Z,2.08
2023-04-15T14:30:43.133Z,2.40
2023-04-15T14:33:10.575Z,2.17
2023-04-15T14:35:37.998Z,2.30
2023-04-15T14:38:06.145Z,2.50
2023-04-15T14:40:33.775Z,3.30
2023-04-15T14:43:00.902Z,3.70
2023-04-15T14:45:28.067Z,2.97
2023-04-15T14:47:55.959Z,3.58
2023-04-15T14:50:23.376Z,3.35
2023-04-15T14:52:50.522Z,1.80
2023-04-15T14:55:17.922Z,2.12
2023-04-15T14:57:45.039Z,4.87
2023-04-15T15:00:15.834Z,3.28
2023-04-15T15:02:44.011Z,2.75
2023-04-15T15:05:11.995Z,2.58
2023-04-15T15:07:40.955Z,2.30
2023-04-15T15:10:09.089Z,1.60
2023-04-15T15:12:36.535Z,2.50
2023-04-15T15:15:12.218Z,3.20
2023-04-15T15:17:47.489Z,3.12
2023-04-15T15:20:14.673Z,2.72
2023-04-15T15:22:41.800Z,3.05
2023-04-15T15:25:09.274Z,2.67
2023-04-15T15:27:38.225Z,3.65
2023-04-15T15:30:06.901Z,5.05
2023-04-15T15:32:34.590Z,5.55
2023-04-15T15:35:01.736Z,3.80
2023-04-15T15:37:30.880Z,4.12
2023-04-15T15:39:58.314Z,4.43
2023-04-15T15:42:25.552Z,4.15
2023-04-15T15:44:55.956Z,4.30
2023-04-15T15:47:23.564Z,3.83
2023-04-15T15:49:50.754Z,8.18
2023-04-15T15:52:19.337Z,7.03
2023-04-15T15:54:47.230Z,3.70
2023-04-15T15:57:14.431Z,3.17
2023-04-15T15:59:43.713Z,4.15
2023-04-15T16:02:12.732Z,3.47
2023-04-15T16:04:41.632Z,2.80
2023-04-15T16:07:10.625Z,2.67
2023-04-15T16:09:38.003Z,2.75
2023-04-15T16:12:05.524Z,4.22
2023-04-15T16:14:32.717Z,3.20
2023-04-15T16:16:59.873Z,3.65
2023-04-15T16:19:27.314Z,4.05
2023-04-15T16:21:54.948Z,5.65
2023-04-15T16:24:22.116Z,3.42
2023-04-15T16:26:49.527Z,3.53
2023-04-15T16:29:16.656Z,1.77
2023-04-15T16:31:43.798Z,1.75
2023-04-15T16:34:12.008Z,1.10
2023-04-15T16:36:40.583Z,1.58
2023-04-15T16:39:07.835Z,2.87
2023-04-15T16:41:35.407Z,3.25
2023-04-15T16:44:03.347Z,3.00
2023-04-15T16:46:31.626Z,3.20
2023-04-15T16:48:59.198Z,3.53
2023-04-15T16:51:27.350Z,1.80
2023-04-15T16:53:54.534Z,1.80
2023-04-15T16:56:22.137Z,2.53
2023-04-15T16:58:49.353Z,3.20
2023-04-15T17:01:16.801Z,3.03
2023-04-15T17:03:44.556Z,2.90
2023-04-15T17:06:12.143Z,1.62
2023-04-15T17:08:40.183Z,1.40
2023-04-15T17:11:07.693Z,1.52
2023-04-15T17:13:34.938Z,1.80
2023-04-15T17:16:02.477Z,1.60
2023-04-15T17:18:38.126Z,1.60
2023-04-15T17:21:13.234Z,1.62
2023-04-15T17:23:42.280Z,2.85
2023-04-15T17:26:09.858Z,7.50
2023-04-15T17:28:37.181Z,16.60
2023-04-15T17:31:08.079Z,17.27
2023-04-15T17:34:05.064Z,13.90
2023-04-15T17:36:37.095Z,17.35
2023-04-15T17:39:27.377Z,16.80
2023-04-15T17:42:15.674Z,18.87
2023-04-15T17:45:02.850Z,19.87
2023-04-15T17:47:50.324Z,17.55
2023-04-15T17:50:38.518Z,17.50
2023-04-15T17:53:26.099Z,12.85
2023-04-15T17:56:13.118Z,22.20
2023-04-15T17:59:02.477Z,26.65
2023-04-15T18:01:49.913Z,22.42
2023-04-15T18:04:37.528Z,19.30
2023-04-15T18:07:24.705Z,21.15
2023-04-15T18:10:12.149Z,15.80
2023-04-15T18:12:59.434Z,24.48
2023-04-15T18:15:48.666Z,28.23
2023-04-15T18:18:35.899Z,19.05
2023-04-15T18:21:03.392Z,14.52
2023-04-15T18:23:30.520Z,12.48
2023-04-15T18:25:58.166Z,11.60
2023-04-15T18:28:25.645Z,16.83
2023-04-15T18:30:53.623Z,18.02
2023-04-15T18:33:20.979Z,19.85
2023-04-15T18:35:49.974Z,17.45
2023-04-15T18:38:17.337Z,15.95
2023-04-15T18:40:44.443Z,16.33
2023-04-15T18:43:14.359Z,14.98
2023-04-15T18:45:41.601Z,17.25
2023-04-15T18:48:08.816Z,14.52
2023-04-15T18:50:36.386Z,14.32
2023-04-15T18:53:03.565Z,13.00
2023-04-15T18:55:31.373Z,11.48
2023-04-15T18:58:07.569Z,10.68
2023-04-15T19:00:40.342Z,10.77
2023-04-15T19:03:08.177Z,11.60
2023-04-15T19:05:36.042Z,12.75
2023-04-15T19:08:03.226Z,16.95
2023-04-15T19:10:30.693Z,18.85
2023-04-15T19:12:57.861Z,34.78
2023-04-15T19:15:25.184Z,25.62
2023-04-15T19:17:54.296Z,25.50
2023-04-15T19:20:22.900Z,46.75
2023-04-15T19:22:50.066Z,43.78
2023-04-15T19:25:17.563Z,25.35
2023-04-15T19:27:44.748Z,34.35
2023-04-15T19:30:12.121Z,100.70
2023-04-15T19:32:39.768Z,50.72
2023-04-15T19:35:08.320Z,23.77
2023-04-15T19:37:36.534Z,13.90
2023-04-15T19:40:04.769Z,13.13
2023-04-15T19:42:31.932Z,14.35
2023-04-15T19:44:59.138Z,15.13
2023-04-15T19:47:28.012Z,12.00
2023-04-15T19:49:55.382Z,9.10
2023-04-15T19:52:22.615Z,9.00
2023-04-15T19:54:50.177Z,8.10
2023-04-15T19:57:17.423Z,7.78
2023-04-15T19:59:44.620Z,8.02
2023-04-15T20:02:12.583Z,8.32
2023-04-15T20:04:40.268Z,10.68
2023-04-15T20:07:07.553Z,10.65
2023-04-15T20:09:34.765Z,10.13
2023-04-15T20:12:46.792Z,11.60
2023-04-15T20:14:49.510Z,12.68
2023-04-15T20:17:17.095Z,11.70
2023-04-15T20:19:44.316Z,15.90
2023-04-15T20:22:11.498Z,11.20
2023-04-15T20:24:38.993Z,9.75
2023-04-15T20:27:06.186Z,8.05
2023-04-15T20:29:33.599Z,8.40
2023-04-15T20:32:01.213Z,9.10
2023-04-15T20:34:28.439Z,8.57
2023-04-15T20:36:55.823Z,8.60
2023-04-15T20:39:23.336Z,8.10
2023-04-15T20:41:50.752Z,6.32
2023-04-15T20:44:17.984Z,6.12
2023-04-15T20:46:45.743Z,5.10
2023-04-15T20:49:12.910Z,5.37
2023-04-15T20:51:40.058Z,7.43
2023-04-15T20:54:07.446Z,8.50
2023-04-15T20:56:34.610Z,7.43
2023-04-15T20:59:01.779Z,8.38
2023-04-15T21:01:29.298Z,7.78
2023-04-15T21:03:56.572Z,7.70
2023-04-15T21:06:23.689Z,6.90
2023-04-15T21:08:52.448Z,6.85
2023-04-15T21:11:38.850Z,7.20
2023-04-15T21:14:08.434Z,9.90
2023-04-15T21:16:35.753Z,8.23
2023-04-15T21:19:03.237Z,7.95
2023-04-15T21:21:31.977Z,13.05
2023-04-15T21:23:59.613Z,20.23
2023-04-15T21:26:26.799Z,16.25
2023-04-15T21:28:54.287Z,11.18
2023-04-15T21:31:22.115Z,12.68
2023-04-15T21:33:49.606Z,8.90
2023-04-15T21:36:17.076Z,6.35
2023-04-15T21:38:44.315Z,7.30
2023-04-15T21:41:11.525Z,6.82
2023-04-15T21:43:38.998Z,6.55
2023-04-15T21:46:22.695Z,6.55
2023-04-15T21:48:53.570Z,7.45
2023-04-15T21:51:20.867Z,6.93
2023-04-15T21:53:48.255Z,7.20
2023-04-15T21:56:15.873Z,10.02
2023-04-15T21:58:43.165Z,9.70
2023-04-15T22:01:10.515Z,7.70
2023-04-15T22:03:38.166Z,7.05
2023-04-15T22:06:05.506Z,6.97
2023-04-15T22:08:38.654Z,8.18
2023-04-15T22:11:29.600Z,7.22
2023-04-15T22:13:58.320Z,7.03
2023-04-15T22:16:26.545Z,7.35
2023-04-15T22:18:54.739Z,6.68
2023-04-15T22:21:22.160Z,7.55
2023-04-15T22:23:49.871Z,7.80
2023-04-15T22:26:16.955Z,6.75
2023-04-15T22:28:44.173Z,7.15
2023-04-15T22:31:11.665Z,7.07
2023-04-15T22:33:39.006Z,6.90
2023-04-15T22:36:06.401Z,7.57
2023-04-15T22:38:33.916Z,7.30
2023-04-15T22:41:01.239Z,7.37
2023-04-15T22:43:28.435Z,8.38
2023-04-15T22:45:56.691Z,7.53
2023-04-15T22:48:24.033Z,6.87
2023-04-15T22:50:51.324Z,6.75
2023-04-15T22:53:19.025Z,7.85
2023-04-15T22:55:49.591Z,7.53
2023-04-15T22:58:18.354Z,9.02
2023-04-15T23:00:45.934Z,10.63
2023-04-15T23:03:13.267Z,9.95
2023-04-15T23:05:41.233Z,10.80
2023-04-15T23:08:08.825Z,10.70
2023-04-15T23:10:35.949Z,11.20
2023-04-15T23:13:03.080Z,13.05
2023-04-15T23:15:30.540Z,12.75
2023-04-15T23:17:57.678Z,13.05
2023-04-15T23:20:24.888Z,12.70
2023-04-15T23:22:52.313Z,13.32
2023-04-15T23:25:22.245Z,13.13
2023-04-15T23:27:49.546Z,14.00
2023-04-15T23:30:17.036Z,12.48
2023-04-15T23:32:44.347Z,13.00
2023-04-15T23:35:11.680Z,11.88
2023-04-15T23:37:39.161Z,12.82
2023-04-15T23:40:07.052Z,12.60
2023-04-15T23:42:34.239Z,12.55
2023-04-15T23:45:01.858Z,11.02
2023-04-15T23:47:30.934Z,11.43
2023-04-15T23:49:58.022Z,11.25
2023-04-15T23:52:25.456Z,11.45
2023-04-15T23:54:52.586Z,10.75
2023-04-15T23:57:19.796Z,12.43
2023-04-15T23:59:47.261Z,10.63
